Time;durP1;ratioP1;P1;durP2;ratioP2;P2;SDS_P1;SDS_P2;PMS_P1;PMS_P2;Temp;Humidity;BMP_temperature;BMP_pressure;BME280_temperature;BME280_humidity;BME280_pressure;Samples;Min_cycle;Max_cycle;Signal;HPM_P1;HPM_P2
2024/03/01 00:00:40;;;;;;;;;;;;;;;12.15;70.98;99205.91;5096060;28;19974;-67
2024/03/01 00:03:09;;;;;;;;;;;;;;;12.00;71.48;99212.09;5097458;28;19930;-67
2024/03/01 00:05:37;;;;;;;;;;;;;;;11.91;71.92;99207.97;5097002;28;19924;-68
2024/03/01 00:08:07;;;;;;;;;;;;;;;11.82;72.55;99210.66;5097277;28;19983;-68
2024/03/01 00:10:36;;;;;;;;;;;;;;;11.79;72.97;99208.13;5097494;28;19924;-68
2024/03/01 00:13:04;;;;;;;;;;;;;;;11.71;73.33;99204.81;5096167;28;19974;-67
2024/03/01 00:15:34;;;;;;;;;;;;;;;11.58;74.19;99203.25;5097185;28;19931;-68
2024/03/01 00:18:02;;;;;;;;;;;;;;;11.51;74.51;99196.53;5097265;28;19924;-67
2024/03/01 00:20:31;;;;;;;;;;;;;;;11.44;74.82;99184.69;5096868;28;20086;-68
2024/03/01 00:22:59;;;;;;;;;;;;;;;11.35;75.19;99184.78;5097132;28;20389;-67
2024/03/01 00:25:29;;;;;;;;;;;;;;;11.25;75.57;99188.34;5096619;28;20344;-68
2024/03/01 00:27:58;;;;;;;;;;;;;;;11.18;76.00;99190.09;5096685;28;19924;-67
2024/03/01 00:30:26;;;;;;;;;;;;;;;11.15;76.18;99184.19;5096499;28;19924;-66
2024/03/01 00:32:55;;;;;;;;;;;;;;;11.09;76.33;99176.56;5096596;28;20368;-68
2024/03/01 00:35:23;;;;;;;;;;;;;;;10.97;76.81;99179.25;5096827;28;19931;-66
2024/03/01 00:37:52;;;;;;;;;;;;;;;10.86;76.64;99179.38;5096857;28;19930;-67
2024/03/01 00:40:20;;;;;;;;;;;;;;;10.78;77.26;99176.06;5096863;28;19973;-67
2024/03/01 00:42:50;;;;;;;;;;;;;;;10.71;77.08;99162.50;5095575;28;19974;-67
2024/03/01 00:45:19;;;;;;;;;;;;;;;10.70;77.38;99148.06;5095480;28;20001;-68
2024/03/01 00:47:49;;;;;;;;;;;;;;;10.63;77.65;99148.97;5094991;28;19924;-67
2024/03/01 00:50:21;;;;;;;;;;;;;;;10.59;78.11;99144.78;5096347;28;19924;-67
2024/03/01 00:52:49;;;;;;;;;;;;;;;10.60;77.88;99136.28;5096641;28;19924;-68
2024/03/01 00:55:18;;;;;;;;;;;;;;;10.56;77.93;99118.44;5096438;28;19924;-66
2024/03/01 00:57:46;;;;;;;;;;;;;;;10.46;78.25;99127.88;5096474;28;19977;-68
2024/03/01 01:00:17;;;;;;;;;;;;;;;10.37;78.46;99122.84;5096512;28;19931;-67
2024/03/01 01:02:46;;;;;;;;;;;;;;;10.33;78.70;99123.75;5096418;28;19928;-67
2024/03/01 01:05:14;;;;;;;;;;;;;;;10.31;78.64;99122.94;5096159;28;20389;-67
2024/03/01 01:07:43;;;;;;;;;;;;;;;10.29;78.77;99118.69;5096264;28;19928;-67
2024/03/01 01:10:11;;;;;;;;;;;;;;;10.25;79.16;99112.75;5095945;28;19931;-67
2024/03/01 01:12:40;;;;;;;;;;;;;;;10.21;79.02;99111.09;5094719;28;19994;-66
2024/03/01 01:15:09;;;;;;;;;;;;;;;10.13;79.13;99112.88;5094967;28;19924;-68
2024/03/01 01:17:44;;;;;;;;;;;;;;;10.07;78.84;99102.69;5094882;28;19928;-68
2024/03/01 01:20:12;;;;;;;;;;;;;;;10.02;79.25;99109.53;5096114;28;19928;-68
2024/03/01 01:22:41;;;;;;;;;;;;;;;10.03;79.45;99101.00;5095686;28;20369;-67
2024/03/01 01:25:09;;;;;;;;;;;;;;;10.01;79.42;99097.63;5095578;28;19947;-67
2024/03/01 01:27:38;;;;;;;;;;;;;;;9.96;79.57;99099.38;5095776;28;19928;-67
2024/03/01 01:30:10;;;;;;;;;;;;;;;9.94;79.43;99096.00;5095633;28;19924;-67
2024/03/01 01:32:39;;;;;;;;;;;;;;;9.89;79.71;99097.72;5095532;28;19924;-67
2024/03/01 01:35:09;;;;;;;;;;;;;;;9.88;80.11;99096.06;5093678;28;20336;-66
2024/03/01 01:37:37;;;;;;;;;;;;;;;9.83;79.75;99102.88;5094657;28;19970;-65
2024/03/01 01:40:07;;;;;;;;;;;;;;;9.82;79.89;99101.19;5095970;28;19924;-67
2024/03/01 01:42:35;;;;;;;;;;;;;;;9.82;80.37;99103.72;5095608;28;19928;-68
2024/03/01 01:45:04;;;;;;;;;;;;;;;9.78;80.41;99094.41;5095152;28;20298;-68
2024/03/01 01:47:32;;;;;;;;;;;;;;;9.76;80.09;99091.03;5095091;28;20184;-66
2024/03/01 01:50:01;;;;;;;;;;;;;;;9.76;80.70;99091.03;5095254;28;19931;-66
2024/03/01 01:52:32;;;;;;;;;;;;;;;9.76;80.25;99094.44;5095391;28;20286;-67
2024/03/01 01:55:02;;;;;;;;;;;;;;;9.75;80.57;99089.34;5095418;28;19924;-67
2024/03/01 01:57:30;;;;;;;;;;;;;;;9.74;80.41;99091.03;5094758;28;20498;-67
2024/03/01 02:00:00;;;;;;;;;;;;;;;9.77;80.13;99093.56;5094831;28;19974;-67
2024/03/01 02:02:29;;;;;;;;;;;;;;;9.76;80.16;99086.81;5094097;28;19924;-66
2024/03/01 02:04:57;;;;;;;;;;;;;;;9.72;80.02;99085.09;5094789;28;20310;-66
2024/03/01 02:07:26;;;;;;;;;;;;;;;9.69;79.98;99076.66;5095103;28;19928;-67
2024/03/01 02:09:56;;;;;;;;;;;;;;;9.68;80.13;99082.59;5094938;28;19924;-67
2024/03/01 02:12:24;;;;;;;;;;;;;;;9.68;80.67;99087.69;5094678;28;19924;-67
2024/03/01 02:14:53;;;;;;;;;;;;;;;9.68;80.65;99082.59;5095030;28;20385;-67
2024/03/01 02:17:22;;;;;;;;;;;;;;;9.63;80.11;99086.88;5093825;28;19974;-67
2024/03/01 02:19:50;;;;;;;;;;;;;;;9.61;80.03;99079.25;5094864;28;19930;-67
2024/03/01 02:22:23;;;;;;;;;;;;;;;9.64;80.66;99078.38;5094452;28;20011;-67
2024/03/01 02:24:52;;;;;;;;;;;;;;;9.60;80.59;99080.09;5094490;28;20290;-67
2024/03/01 02:27:20;;;;;;;;;;;;;;;9.56;80.21;99069.94;5094878;28;19959;-66
2024/03/01 02:29:49;;;;;;;;;;;;;;;9.49;79.99;99069.13;5093323;28;20394;-67
2024/03/01 02:32:17;;;;;;;;;;;;;;;9.41;80.74;99069.19;5094708;28;20022;-67
2024/03/01 02:34:46;;;;;;;;;;;;;;;9.40;80.65;99070.06;5094722;28;19924;-66
2024/03/01 02:37:14;;;;;;;;;;;;;;;9.40;80.79;99076.84;5094259;28;19924;-68
2024/03/01 02:39:43;;;;;;;;;;;;;;;9.41;80.78;99079.38;5094596;28;19946;-67
2024/03/01 02:42:13;;;;;;;;;;;;;;;9.47;80.72;99072.56;5093441;28;19925;-67
2024/03/01 02:44:41;;;;;;;;;;;;;;;9.44;81.25;99078.50;5094551;28;19928;-67
2024/03/01 02:47:10;;;;;;;;;;;;;;;9.43;81.02;99077.66;5094519;28;19924;-67
2024/03/01 02:49:40;;;;;;;;;;;;;;;9.44;80.95;99074.25;5094390;28;19924;-67
2024/03/01 02:52:09;;;;;;;;;;;;;;;9.48;81.37;99069.16;5094229;28;19924;-67
2024/03/01 02:54:37;;;;;;;;;;;;;;;9.49;81.74;99065.75;5094972;28;19924;-67
2024/03/01 02:57:06;;;;;;;;;;;;;;;9.48;82.08;99066.63;5094704;28;19967;-66
2024/03/01 02:59:36;;;;;;;;;;;;;;;9.51;81.42;99071.66;5094254;28;20039;-66
2024/03/01 03:02:04;;;;;;;;;;;;;;;9.51;81.29;99064.03;5093532;28;19930;-66
2024/03/01 03:04:33;;;;;;;;;;;;;;;9.50;81.45;99062.34;5094277;28;19934;-67
2024/03/01 03:07:01;;;;;;;;;;;;;;;9.48;81.84;99064.88;5094335;28;19924;-66
2024/03/01 03:09:37;;;;;;;;;;;;;;;9.45;81.92;99057.28;5098241;28;19954;-67
2024/03/01 03:12:06;;;;;;;;;;;;;;;9.43;81.93;99061.53;5098221;28;19924;-66
2024/03/01 03:14:36;;;;;;;;;;;;;;;9.43;82.49;99051.34;5098135;28;19928;-65
2024/03/01 03:17:05;;;;;;;;;;;;;;;9.48;82.19;99054.69;5098492;28;19924;-67
2024/03/01 03:19:34;;;;;;;;;;;;;;;9.50;82.04;99057.25;5098355;28;19924;-66
2024/03/01 03:22:08;;;;;;;;;;;;;;;9.54;82.24;99058.91;5098319;28;19923;-66
2024/03/01 03:24:38;;;;;;;;;;;;;;;9.52;82.24;99050.44;5097975;28;19924;-67
2024/03/01 03:27:06;;;;;;;;;;;;;;;9.51;82.48;99053.84;5098578;28;20030;-67
2024/03/01 03:29:37;;;;;;;;;;;;;;;9.51;82.56;99054.69;5097837;28;19931;-67
2024/03/01 03:32:06;;;;;;;;;;;;;;;9.50;82.33;99052.16;5096406;28;19924;-67
2024/03/01 03:34:34;;;;;;;;;;;;;;;9.46;82.59;99053.88;5096849;28;19924;-66
2024/03/01 03:37:04;;;;;;;;;;;;;;;9.46;82.75;99046.22;5098043;28;20270;-66
2024/03/01 03:39:33;;;;;;;;;;;;;;;9.49;82.98;99047.91;5098018;28;19990;-67
2024/03/01 03:42:01;;;;;;;;;;;;;;;9.53;82.63;99054.66;5097646;28;19950;-66
2024/03/01 03:44:29;;;;;;;;;;;;;;;9.55;83.37;99060.63;5097464;28;19924;-67
2024/03/01 03:46:59;;;;;;;;;;;;;;;9.59;83.22;99059.75;5096681;28;19946;-66
2024/03/01 03:49:29;;;;;;;;;;;;;;;9.65;82.68;99052.88;5097842;28;19931;-66
2024/03/01 03:51:58;;;;;;;;;;;;;;;9.66;82.72;99063.94;5096218;28;19931;-67
2024/03/01 03:54:28;;;;;;;;;;;;;;;9.70;82.99;99060.50;5096528;28;19963;-66
2024/03/01 03:56:56;;;;;;;;;;;;;;;9.74;82.94;99059.63;5097688;28;19932;-65
2024/03/01 03:59:25;;;;;;;;;;;;;;;9.75;82.62;99056.22;5097643;28;19928;-67
2024/03/01 04:01:53;;;;;;;;;;;;;;;9.82;82.59;99060.41;5097480;28;20370;-67
2024/03/01 04:04:23;;;;;;;;;;;;;;;9.86;82.36;99068.00;5097447;28;19924;-67
2024/03/01 04:06:52;;;;;;;;;;;;;;;9.91;82.61;99062.91;5097517;28;20290;-67
2024/03/01 04:09:20;;;;;;;;;;;;;;;9.97;82.54;99060.28;5097407;28;20015;-67
2024/03/01 04:11:49;;;;;;;;;;;;;;;10.01;82.23;99061.94;5095963;28;19971;-66
2024/03/01 04:14:17;;;;;;;;;;;;;;;10.04;82.36;99051.72;5096969;28;19973;-67
2024/03/01 04:16:46;;;;;;;;;;;;;;;10.07;82.13;99051.72;5097657;28;20389;-67
2024/03/01 04:19:15;;;;;;;;;;;;;;;10.10;82.30;99049.16;5095928;28;19928;-66
2024/03/01 04:21:45;;;;;;;;;;;;;;;10.12;82.27;99038.94;5097444;28;19970;-66
2024/03/01 04:24:14;;;;;;;;;;;;;;;10.11;82.03;99027.88;5096663;28;19951;-67
2024/03/01 04:26:42;;;;;;;;;;;;;;;10.14;82.28;99027.03;5095399;28;19924;-67
2024/03/01 04:29:11;;;;;;;;;;;;;;;10.15;81.88;99014.25;5097081;28;19928;-67
2024/03/01 04:31:42;;;;;;;;;;;;;;;10.17;81.87;99015.09;5095503;28;20435;-66
2024/03/01 04:34:11;;;;;;;;;;;;;;;10.15;82.13;99009.16;5096938;28;20016;-67
2024/03/01 04:36:40;;;;;;;;;;;;;;;10.12;82.05;99014.31;5096555;28;20332;-67
2024/03/01 04:39:12;;;;;;;;;;;;;;;10.12;82.10;99014.31;5096544;28;20286;-67
2024/03/01 04:41:40;;;;;;;;;;;;;;;10.10;82.11;99013.44;5096676;28;19924;-67
2024/03/01 04:44:08;;;;;;;;;;;;;;;10.07;82.03;99006.66;5096603;28;20427;-67
2024/03/01 04:46:40;;;;;;;;;;;;;;;10.05;82.19;99007.53;5096714;28;19924;-67
2024/03/01 04:49:09;;;;;;;;;;;;;;;10.03;81.97;99009.22;5096756;28;19924;-67
2024/03/01 04:51:38;;;;;;;;;;;;;;;10.01;82.41;99010.97;5096718;28;20291;-66
2024/03/01 04:54:07;;;;;;;;;;;;;;;9.99;82.32;99002.50;5096476;28;19967;-66
2024/03/01 04:56:38;;;;;;;;;;;;;;;9.97;82.57;99014.41;5096836;28;20031;-66
2024/03/01 04:59:08;;;;;;;;;;;;;;;9.96;82.50;99002.50;5095316;28;19956;-67
2024/03/01 05:01:41;;;;;;;;;;;;;;;9.93;82.54;99012.75;5096799;28;20373;-67
2024/03/01 05:04:10;;;;;;;;;;;;;;;9.91;82.20;99009.38;5096260;28;20262;-67
2024/03/01 05:06:38;;;;;;;;;;;;;;;9.90;82.54;99002.56;5096263;28;19937;-67
2024/03/01 05:09:07;;;;;;;;;;;;;;;9.88;82.60;99004.31;5096272;28;19924;-67
2024/03/01 05:11:36;;;;;;;;;;;;;;;9.86;82.51;99000.94;5096642;28;19928;-67
2024/03/01 05:14:06;;;;;;;;;;;;;;;9.83;81.98;99001.78;5096191;28;19924;-66
2024/03/01 05:16:34;;;;;;;;;;;;;;;9.81;82.62;99012.84;5096063;28;19969;-67
2024/03/01 05:19:03;;;;;;;;;;;;;;;9.78;82.31;99007.78;5094941;28;19924;-67
2024/03/01 05:21:32;;;;;;;;;;;;;;;9.76;82.35;99007.81;5096101;28;19924;-68
2024/03/01 05:24:00;;;;;;;;;;;;;;;9.73;82.73;99009.53;5096014;28;20048;-66
2024/03/01 05:26:30;;;;;;;;;;;;;;;9.72;82.44;99005.28;5095494;28;19924;-67
2024/03/01 05:28:58;;;;;;;;;;;;;;;9.72;82.89;99007.81;5094695;28;19924;-67
2024/03/01 05:31:44;;;;;;;;;;;;;;;9.71;82.77;99006.16;5093814;28;19932;-67
2024/03/01 05:34:12;;;;;;;;;;;;;;;9.69;82.25;99015.50;5095789;28;19925;-67
2024/03/01 05:36:41;;;;;;;;;;;;;;;9.68;82.95;99011.25;5095764;28;19930;-67
2024/03/01 05:39:18;;;;;;;;;;;;;;;9.72;82.89;99015.47;5094006;28;19930;-68
2024/03/01 05:41:46;;;;;;;;;;;;;;;9.70;82.81;99012.94;5096007;28;19977;-67
2024/03/01 05:44:15;;;;;;;;;;;;;;;9.69;82.71;99006.16;5095436;28;19924;-67
2024/03/01 05:46:45;;;;;;;;;;;;;;;9.66;82.50;99015.53;5093697;28;19930;-67
2024/03/01 05:49:14;;;;;;;;;;;;;;;9.64;82.83;99010.44;5094403;28;19931;-67
2024/03/01 05:51:44;;;;;;;;;;;;;;;9.65;82.99;99008.72;5095330;28;20374;-66
2024/03/01 05:54:12;;;;;;;;;;;;;;;9.70;82.76;99004.44;5095310;28;19950;-67
2024/03/01 05:56:41;;;;;;;;;;;;;;;9.74;82.75;99006.13;5094073;28;19947;-68
2024/03/01 05:59:09;;;;;;;;;;;;;;;9.75;83.00;98997.59;5094084;28;19924;-68
2024/03/01 06:01:38;;;;;;;;;;;;;;;9.78;82.48;99000.13;5093682;28;20381;-67
2024/03/01 06:04:11;;;;;;;;;;;;;;;9.81;82.31;99005.22;5094755;28;19931;-67
2024/03/01 06:06:39;;;;;;;;;;;;;;;9.83;82.86;98990.75;5095502;28;19924;-67
2024/03/01 06:09:09;;;;;;;;;;;;;;;9.84;82.63;98989.88;5094810;28;20290;-68
2024/03/01 06:11:37;;;;;;;;;;;;;;;9.84;82.56;98983.09;5094593;28;19967;-66
2024/03/01 06:14:05;;;;;;;;;;;;;;;9.85;82.54;98989.88;5093576;28;20274;-69
2024/03/01 06:16:34;;;;;;;;;;;;;;;9.88;82.50;98978.81;5094934;28;19924;-68
2024/03/01 06:19:02;;;;;;;;;;;;;;;9.90;82.50;98977.09;5094935;28;20015;-66
2024/03/01 06:21:32;;;;;;;;;;;;;;;9.90;82.48;98982.19;5094696;28;20470;-68
2024/03/01 06:24:01;;;;;;;;;;;;;;;9.90;82.69;98992.38;5094838;28;19965;-68
2024/03/01 06:26:29;;;;;;;;;;;;;;;9.93;82.54;98993.19;5094295;28;19924;-67
2024/03/01 06:28:58;;;;;;;;;;;;;;;9.97;82.38;98983.81;5095182;28;20355;-68
2024/03/01 06:31:26;;;;;;;;;;;;;;;9.98;82.17;98995.72;5093275;28;20392;-67
2024/03/01 06:33:55;;;;;;;;;;;;;;;10.00;82.00;98988.91;5094284;28;20378;-68
2024/03/01 06:36:23;;;;;;;;;;;;;;;10.00;82.29;98999.09;5094311;28;20419;-67
2024/03/01 06:38:53;;;;;;;;;;;;;;;10.04;82.12;98995.66;5093141;28;19924;-68
2024/03/01 06:41:22;;;;;;;;;;;;;;;10.08;81.97;98987.94;5094670;28;20022;-67
2024/03/01 06:43:50;;;;;;;;;;;;;;;10.12;82.44;98985.41;5092332;28;19924;-68
2024/03/01 06:46:18;;;;;;;;;;;;;;;10.13;82.28;98985.38;5094065;28;20328;-68
2024/03/01 06:48:47;;;;;;;;;;;;;;;10.15;82.20;98985.38;5094432;28;19928;-68
2024/03/01 06:51:16;;;;;;;;;;;;;;;10.18;82.03;98978.53;5094409;28;19930;-68
2024/03/01 06:53:44;;;;;;;;;;;;;;;10.23;82.29;98976.78;5093949;28;19950;-68
2024/03/01 06:56:14;;;;;;;;;;;;;;;10.27;82.29;98986.06;5092809;28;19923;-68
2024/03/01 06:58:42;;;;;;;;;;;;;;;10.30;82.17;98973.31;5093111;28;19924;-68
2024/03/01 07:01:11;;;;;;;;;;;;;;;10.33;82.61;98978.38;5093877;28;19924;-68
2024/03/01 07:03:39;;;;;;;;;;;;;;;10.34;82.03;98987.69;5094015;28;19925;-67
2024/03/01 07:06:08;;;;;;;;;;;;;;;10.38;81.94;98991.94;5094160;28;19993;-67
2024/03/01 07:08:37;;;;;;;;;;;;;;;10.44;81.84;98989.28;5094224;28;19924;-68
2024/03/01 07:11:07;;;;;;;;;;;;;;;10.55;82.01;98984.06;5112708;28;19930;-68
2024/03/01 07:13:37;;;;;;;;;;;;;;;10.62;82.05;98984.00;5114065;28;19923;-68
2024/03/01 07:16:06;;;;;;;;;;;;;;;10.69;81.93;98983.06;5114225;28;20322;-67
2024/03/01 07:18:34;;;;;;;;;;;;;;;10.74;82.03;98991.50;5113302;28;20035;-68
2024/03/01 07:21:04;;;;;;;;;;;;;;;10.80;81.88;98998.22;5114445;28;19931;-67
2024/03/01 07:23:32;;;;;;;;;;;;;;;10.88;81.58;98998.13;5113332;28;20026;-68
2024/03/01 07:26:01;;;;;;;;;;;;;;;10.94;81.24;98998.06;5112618;28;19977;-68
2024/03/01 07:28:34;;;;;;;;;;;;;;;11.01;80.88;98999.66;5113287;28;19924;-68
2024/03/01 07:31:04;;;;;;;;;;;;;;;11.05;80.63;98993.63;5114437;28;20358;-67
2024/03/01 07:33:33;;;;;;;;;;;;;;;11.13;80.10;99007.16;5114300;28;19959;-67
2024/03/01 07:36:01;;;;;;;;;;;;;;;11.21;79.46;98997.66;5112873;28;20348;-68
2024/03/01 07:38:30;;;;;;;;;;;;;;;11.32;78.50;98972.81;5114129;28;19924;-67
2024/03/01 07:40:58;;;;;;;;;;;;;;;11.41;77.87;98977.78;5113926;28;19930;-68
2024/03/01 07:43:27;;;;;;;;;;;;;;;11.47;77.27;98964.88;5114314;28;19923;-68
2024/03/01 07:45:55;;;;;;;;;;;;;;;11.56;77.18;98980.09;5114207;28;19923;-68
2024/03/01 07:48:25;;;;;;;;;;;;;;;11.63;76.15;98974.03;5114237;28;19924;-68
2024/03/01 07:50:53;;;;;;;;;;;;;;;11.73;75.45;98970.47;5114468;28;19970;-68
2024/03/01 07:53:22;;;;;;;;;;;;;;;11.78;75.16;98970.41;5114042;28;19970;-68
2024/03/01 07:55:50;;;;;;;;;;;;;;;11.84;73.83;98972.84;5117942;28;20289;-67
2024/03/01 07:58:21;;;;;;;;;;;;;;;12.12;72.12;98960.41;5117864;28;19924;-68
2024/03/01 08:00:50;;;;;;;;;;;;;;;12.49;67.96;98971.63;5099583;28;20022;-67
2024/03/01 08:03:18;;;;;;;;;;;;;;;12.87;64.31;98978.50;5117851;28;19924;-67
2024/03/01 08:05:48;;;;;;;;;;;;;;;13.12;63.62;98979.72;5117336;28;20404;-66
2024/03/01 08:08:24;;;;;;;;;;;;;;;13.29;62.28;98991.25;5116502;28;20301;-67
2024/03/01 08:10:54;;;;;;;;;;;;;;;13.36;62.70;98994.53;5117742;28;19931;-66
2024/03/01 08:13:22;;;;;;;;;;;;;;;13.34;62.87;98999.69;5116227;28;19956;-66
2024/03/01 08:15:51;;;;;;;;;;;;;;;13.42;62.09;98981.56;5116389;28;19973;-66
2024/03/01 08:18:24;;;;;;;;;;;;;;;13.51;61.46;98988.22;5117684;28;19927;-65
2024/03/01 08:21:02;;;;;;;;;;;;;;;13.63;60.92;98980.22;5117600;27;20378;-67
2024/03/01 08:23:35;;;;;;;;;;;;;;;13.67;60.66;98984.41;5099186;28;19973;-67
2024/03/01 08:26:03;;;;;;;;;;;;;;;13.78;59.59;98972.13;5116454;28;19977;-67
2024/03/01 08:28:32;;;;;;;;;;;;;;;13.81;60.29;98962.66;5117423;28;19924;-67
2024/03/01 08:31:04;;;;;;;;;;;;;;;13.86;60.62;98967.66;5117257;28;19927;-67
2024/03/01 08:33:33;;;;;;;;;;;;;;;13.90;60.83;98971.81;5117192;28;19973;-66
2024/03/01 08:36:03;;;;;;;;;;;;;;;13.91;60.28;98960.69;5117300;28;19924;-67
2024/03/01 08:38:53;;;;;;;;;;;;;;;13.93;59.91;98972.59;5116908;28;19924;-66
2024/03/01 08:41:21;;;;;;;;;;;;;;;13.90;60.34;98961.56;5091846;28;20022;-66
2024/03/01 08:43:50;;;;;;;;;;;;;;;13.94;59.85;98958.06;5117051;28;19969;-66
2024/03/01 08:46:24;;;;;;;;;;;;;;;13.98;59.88;98960.50;5115772;28;19985;-66
2024/03/01 08:48:52;;;;;;;;;;;;;;;14.04;59.94;98964.63;5116832;28;19924;-66
2024/03/01 08:51:22;;;;;;;;;;;;;;;14.05;60.02;98961.19;5117089;28;19923;-68
2024/03/01 08:54:09;;;;;;;;;;;;;;;14.04;60.09;98964.63;5116756;28;19923;-66
2024/03/01 08:56:38;;;;;;;;;;;;;;;14.08;59.85;98956.78;5116884;28;20331;-67
2024/03/01 08:59:25;;;;;;;;;;;;;;;14.11;60.03;98955.88;5116877;28;20365;-68
2024/03/01 09:01:54;;;;;;;;;;;;;;;14.11;60.44;98961.00;5116878;28;19943;-68
2024/03/01 09:04:27;;;;;;;;;;;;;;;14.10;59.37;98960.19;5116237;28;20339;-66
2024/03/01 09:07:05;;;;;;;;;;;;;;;14.13;58.99;98956.69;5116377;28;19924;-67
2024/03/01 09:09:33;;;;;;;;;;;;;;;14.13;59.44;98953.28;5116580;28;19949;-67
2024/03/01 09:12:02;;;;;;;;;;;;;;;14.09;59.30;98957.63;5116618;28;19924;-68
2024/03/01 09:14:32;;;;;;;;;;;;;;;14.07;59.41;98961.97;5116059;28;19924;-68
2024/03/01 09:17:01;;;;;;;;;;;;;;;14.08;59.57;98955.97;5116545;28;19923;-68
2024/03/01 09:19:35;;;;;;;;;;;;;;;14.06;59.72;98957.72;5116393;28;20026;-68
2024/03/01 09:22:05;;;;;;;;;;;;;;;14.07;59.90;98955.13;5116108;28;19928;-67
2024/03/01 09:24:37;;;;;;;;;;;;;;;14.06;59.95;98948.28;5116172;28;19924;-68
2024/03/01 09:27:09;;;;;;;;;;;;;;;14.05;60.43;98945.78;5116001;28;19927;-67
2024/03/01 09:29:38;;;;;;;;;;;;;;;14.04;60.35;98954.34;5116381;28;19930;-68
2024/03/01 09:32:06;;;;;;;;;;;;;;;14.04;60.35;98947.50;5116214;28;19950;-68
2024/03/01 09:34:37;;;;;;;;;;;;;;;14.08;60.37;98941.41;5114655;28;19931;-68
2024/03/01 09:37:10;;;;;;;;;;;;;;;14.07;60.46;98949.16;5116183;28;19923;-68
2024/03/01 09:39:40;;;;;;;;;;;;;;;14.11;60.53;98945.59;5116079;28;19928;-67
2024/03/01 09:42:28;;;;;;;;;;;;;;;14.14;60.08;98950.66;5116153;28;19935;-68
2024/03/01 09:45:16;;;;;;;;;;;;;;;14.17;60.41;98950.59;5115908;28;20382;-67
2024/03/01 09:47:51;;;;;;;;;;;;;;;14.21;60.41;98952.19;5116039;28;19977;-67
2024/03/01 09:50:26;;;;;;;;;;;;;;;14.22;60.17;98953.88;5114745;28;20472;-68
2024/03/01 09:53:04;;;;;;;;;;;;;;;14.21;60.52;98947.06;5115831;28;19930;-68
2024/03/01 09:55:37;;;;;;;;;;;;;;;14.22;60.73;98953.03;5116093;28;19969;-68
2024/03/01 09:58:11;;;;;;;;;;;;;;;14.23;61.15;98954.72;5114480;28;20374;-67
2024/03/01 10:00:44;;;;;;;;;;;;;;;14.25;61.30;98958.94;5115405;28;19928;-67
2024/03/01 10:03:18;;;;;;;;;;;;;;;14.31;61.40;98966.50;5115655;27;19930;-67
2024/03/01 10:05:57;;;;;;;;;;;;;;;14.31;61.07;98957.94;5113986;28;20381;-68
2024/03/01 10:08:36;;;;;;;;;;;;;;;14.29;61.67;98968.22;5115880;28;19963;-67
2024/03/01 10:11:18;;;;;;;;;;;;;;;14.25;61.77;98958.94;5114260;28;20026;-68
2024/03/01 10:13:55;;;;;;;;;;;;;;;14.22;61.66;98953.88;5114194;28;20375;-67
2024/03/01 10:16:31;;;;;;;;;;;;;;;14.17;62.34;98954.88;5113718;28;19977;-67
2024/03/01 10:19:07;;;;;;;;;;;;;;;14.13;62.23;98956.69;5115320;28;19956;-68
2024/03/01 10:21:40;;;;;;;;;;;;;;;14.10;62.35;98952.50;5115642;28;19935;-68
2024/03/01 10:24:19;;;;;;;;;;;;;;;14.05;62.74;98958.63;5115229;28;19994;-67
2024/03/01 10:26:53;;;;;;;;;;;;;;;14.04;63.43;98962.03;5114844;28;20457;-68
2024/03/01 10:29:28;;;;;;;;;;;;;;;14.01;63.38;98962.97;5115158;28;19959;-67
2024/03/01 10:32:02;;;;;;;;;;;;;;;13.91;64.35;98964.13;5115075;28;20316;-67
2024/03/01 10:34:38;;;;;;;;;;;;;;;13.83;64.80;98965.16;5113786;28;19924;-67
2024/03/01 10:37:10;;;;;;;;;;;;;;;13.76;65.61;98961.94;5113825;28;19924;-67
2024/03/01 10:39:46;;;;;;;;;;;;;;;13.68;66.26;98955.28;5115099;28;19947;-68
2024/03/01 10:42:17;;;;;;;;;;;;;;;13.60;67.48;98958.06;5115000;28;19967;-67
2024/03/01 10:44:51;;;;;;;;;;;;;;;13.58;67.92;98956.41;5113204;28;19928;-68
2024/03/01 10:47:21;;;;;;;;;;;;;;;13.55;69.00;98961.63;5114947;28;19928;-67
2024/03/01 10:50:00;;;;;;;;;;;;;;;13.48;69.27;98962.63;5115115;28;19928;-68
2024/03/01 10:52:34;;;;;;;;;;;;;;;13.47;69.64;98951.53;5114903;28;19923;-68
2024/03/01 10:55:05;;;;;;;;;;;;;;;13.47;70.71;98954.09;5114584;28;19931;-67
2024/03/01 10:57:39;;;;;;;;;;;;;;;13.46;71.11;98949.84;5114790;28;19955;-67
2024/03/01 11:00:13;;;;;;;;;;;;;;;13.44;71.58;98934.50;5114348;28;19991;-67
2024/03/01 11:02:48;;;;;;;;;;;;;;;13.48;71.34;98942.13;5114695;28;19927;-67
2024/03/01 11:05:21;;;;;;;;;;;;;;;13.48;71.86;98942.13;5114606;28;19993;-67
2024/03/01 11:07:56;;;;;;;;;;;;;;;13.42;72.01;98932.84;5114944;28;20006;-67
2024/03/01 11:10:29;;;;;;;;;;;;;;;13.39;71.59;98938.91;5114372;28;19924;-67
2024/03/01 11:13:00;;;;;;;;;;;;;;;13.35;71.69;98945.00;5113413;28;20289;-68
2024/03/01 11:15:30;;;;;;;;;;;;;;;13.36;72.06;98944.09;5113172;28;20014;-67
2024/03/01 11:18:00;;;;;;;;;;;;;;;13.32;71.88;98942.50;5113264;28;20289;-67
2024/03/01 11:20:30;;;;;;;;;;;;;;;13.28;71.63;98940.03;5114624;28;19955;-67
2024/03/01 11:23:00;;;;;;;;;;;;;;;13.25;72.01;98930.69;5114322;28;19924;-68
2024/03/01 11:25:43;;;;;;;;;;;;;;;13.20;72.01;98937.66;5113884;28;19947;-68
2024/03/01 11:28:15;;;;;;;;;;;;;;;13.22;71.99;98935.88;5114544;28;19923;-68
2024/03/01 11:30:46;;;;;;;;;;;;;;;13.23;71.89;98929.91;5118138;28;19963;-67
2024/03/01 11:33:15;;;;;;;;;;;;;;;13.23;71.97;98922.22;5118994;28;20025;-68
2024/03/01 11:35:46;;;;;;;;;;;;;;;13.24;72.42;98915.38;5118193;28;19973;-68
2024/03/01 11:38:23;;;;;;;;;;;;;;;13.25;72.05;98914.47;5118096;28;19923;-67
2024/03/01 11:41:00;;;;;;;;;;;;;;;13.26;72.52;98918.75;5118240;28;19927;-68
2024/03/01 11:43:39;;;;;;;;;;;;;;;13.24;73.10;98913.66;5118194;28;20394;-67
2024/03/01 11:46:16;;;;;;;;;;;;;;;13.23;73.05;98919.66;5118308;28;19946;-67
2024/03/01 11:48:56;;;;;;;;;;;;;;;13.19;73.13;98914.63;5118177;28;19928;-67
2024/03/01 11:51:31;;;;;;;;;;;;;;;13.08;73.57;98907.19;5098278;28;19924;-68
2024/03/01 11:54:12;;;;;;;;;;;;;;;13.06;74.52;98919.19;5103846;28;19932;-69
2024/03/01 11:56:51;;;;;;;;;;;;;;;13.04;74.29;98910.69;5097320;28;19924;-69
2024/03/01 11:59:29;;;;;;;;;;;;;;;13.05;75.13;98908.97;5097215;28;19924;-67
2024/03/01 12:02:04;;;;;;;;;;;;;;;13.01;75.50;98912.44;5097302;28;19924;-67
2024/03/01 12:04:47;;;;;;;;;;;;;;;12.96;nan;98906.59;5097065;28;19924;-68
2024/03/01 12:07:25;;;;;;;;;;;;;;;12.91;75.57;98906.69;5097401;28;19924;-68
2024/03/01 12:10:00;;;;;;;;;;;;;;;12.88;75.71;98909.34;5097546;28;20370;-68
2024/03/01 12:12:37;;;;;;;;;;;;;;;12.82;76.07;98904.34;5096184;28;19924;-68
2024/03/01 12:15:08;;;;;;;;;;;;;;;12.80;76.39;98895.88;5097852;28;20380;-68
2024/03/01 12:17:43;;;;;;;;;;;;;;;12.76;76.56;98899.38;5096924;28;19928;-68
2024/03/01 12:20:14;;;;;;;;;;;;;;;12.74;76.30;98901.13;5097243;28;19928;-67
2024/03/01 12:22:47;;;;;;;;;;;;;;;12.73;76.66;98895.16;5097202;28;19969;-68
2024/03/01 12:25:16;;;;;;;;;;;;;;;12.70;76.57;98896.94;5096750;28;19938;-67
2024/03/01 12:27:58;;;;;;;;;;;;;;;12.67;76.78;98899.56;5095411;28;20374;-69
2024/03/01 12:30:28;;;;;;;;;;;;;;;12.62;77.05;98891.97;5094807;28;19946;-70
2024/03/01 12:33:06;;;;;;;;;;;;;;;12.57;76.90;98882.72;5097086;28;19985;-69
2024/03/01 12:35:37;;;;;;;;;;;;;;;12.55;77.05;98884.47;5096816;28;19931;-69
2024/03/01 12:38:11;;;;;;;;;;;;;;;12.54;77.45;98887.91;5097298;28;19924;-67
2024/03/01 12:40:45;;;;;;;;;;;;;;;12.54;78.02;98887.91;5094195;28;20398;-66
2024/03/01 12:43:21;;;;;;;;;;;;;;;12.54;78.17;98887.91;5095853;28;20365;-66
2024/03/01 12:46:18;;;;;;;;;;;;;;;12.50;78.20;98876.88;5096727;28;19928;-66
2024/03/01 12:48:52;;;;;;;;;;;;;;;12.47;78.46;98886.34;5075227;28;19931;-66
2024/03/01 12:51:24;;;;;;;;;;;;;;;12.47;78.74;98881.25;5096364;28;19930;-66
2024/03/01 12:54:01;;;;;;;;;;;;;;;12.48;79.17;98875.22;5096551;28;19969;-66
2024/03/01 12:56:42;;;;;;;;;;;;;;;12.51;79.50;98873.47;5096380;28;19924;-66
2024/03/01 12:59:29;;;;;;;;;;;;;;;12.51;79.60;98875.16;5096609;28;19928;-66
2024/03/01 13:02:11;;;;;;;;;;;;;;;12.51;79.33;98877.72;5096805;28;19924;-67
2024/03/01 13:04:43;;;;;;;;;;;;;;;12.51;79.67;98872.63;5095991;28;20423;-67
2024/03/01 13:07:15;;;;;;;;;;;;;;;12.52;79.41;98871.75;5096394;28;20014;-68
2024/03/01 13:09:45;;;;;;;;;;;;;;;12.52;79.36;98869.19;5096227;28;19924;-68